sensor_id;sensor_type;location;lat;lon;timestamp;pressure;altitude;pressure_sealevel;temperature;humidity
5146;BME280;2591;48.144;15.152;2023-02-12T00:01:07;78031.94;;;-144.65;77.75
5146;BME280;2591;48.144;15.152;2023-02-12T00:03:35;78046.22;;;-144.65;77.93
5146;BME280;2591;48.144;15.152;2023-02-12T00:06:04;78046.22;;;-144.65;78.21
5146;BME280;2591;48.144;15.152;2023-02-12T00:08:33;78060.50;;;-144.65;78.67
5146;BME280;2591;48.144;15.152;2023-02-12T00:11:06;78044.16;;;-144.65;78.58
5146;BME280;2591;48.144;15.152;2023-02-12T00:13:36;78060.50;;;-144.65;78.70
5146;BME280;2591;48.144;15.152;2023-02-12T00:16:05;78058.44;;;-144.65;78.52
5146;BME280;2591;48.144;15.152;2023-02-12T00:18:33;78066.59;;;-144.65;78.83
5146;BME280;2591;48.144;15.152;2023-02-12T00:21:01;78052.31;;;-144.65;78.81
5146;BME280;2591;48.144;15.152;2023-02-12T00:23:29;78068.66;;;-144.65;78.86
5146;BME280;2591;48.144;15.152;2023-02-12T00:25:57;78068.66;;;-144.65;78.89
5146;BME280;2591;48.144;15.152;2023-02-12T00:28:26;78068.66;;;-144.65;78.89
5146;BME280;2591;48.144;15.152;2023-02-12T00:30:55;78068.66;;;-144.65;79.51
5146;BME280;2591;48.144;15.152;2023-02-12T00:33:23;78064.56;;;-144.65;79.60
5146;BME280;2591;48.144;15.152;2023-02-12T00:35:54;78072.72;;;-144.65;79.61
5146;BME280;2591;48.144;15.152;2023-02-12T00:38:23;78062.53;;;-144.65;79.88
5146;BME280;2591;48.144;15.152;2023-02-12T00:40:50;78062.53;;;-144.65;80.29
5146;BME280;2591;48.144;15.152;2023-02-12T00:43:18;78068.66;;;-144.65;80.73
5146;BME280;2591;48.144;15.152;2023-02-12T00:45:46;78060.50;;;-144.65;80.82
5146;BME280;2591;48.144;15.152;2023-02-12T00:48:16;78064.56;;;-144.65;81.19
5146;BME280;2591;48.144;15.152;2023-02-12T00:50:44;78052.31;;;-144.65;81.33
5146;BME280;2591;48.144;15.152;2023-02-12T00:53:12;78052.31;;;-144.65;81.75
5146;BME280;2591;48.144;15.152;2023-02-12T00:55:40;78060.50;;;-144.65;82.38
5146;BME280;2591;48.144;15.152;2023-02-12T00:58:09;78062.53;;;-144.65;82.62
5146;BME280;2591;48.144;15.152;2023-02-12T01:00:37;78066.59;;;-144.65;82.83
5146;BME280;2591;48.144;15.152;2023-02-12T01:03:05;78058.44;;;-144.65;83.47
5146;BME280;2591;48.144;15.152;2023-02-12T01:05:34;78056.41;;;-144.65;83.59
5146;BME280;2591;48.144;15.152;2023-02-12T01:08:03;78056.41;;;-144.65;83.76
5146;BME280;2591;48.144;15.152;2023-02-12T01:10:31;78056.41;;;-144.65;84.21
5146;BME280;2591;48.144;15.152;2023-02-12T01:13:00;78058.44;;;-144.65;84.37
5146;BME280;2591;48.144;15.152;2023-02-12T01:15:28;78050.28;;;-144.65;84.67
5146;BME280;2591;48.144;15.152;2023-02-12T01:17:55;78044.16;;;-144.65;84.69
5146;BME280;2591;48.144;15.152;2023-02-12T01:20:24;78052.31;;;-144.65;85.16
5146;BME280;2591;48.144;15.152;2023-02-12T01:22:53;78040.09;;;-144.65;84.63
5146;BME280;2591;48.144;15.152;2023-02-12T01:25:21;78036.00;;;-144.65;84.69
5146;BME280;2591;48.144;15.152;2023-02-12T01:27:51;78044.16;;;-144.65;85.08
5146;BME280;2591;48.144;15.152;2023-02-12T01:30:20;78044.16;;;-144.65;86.11
5146;BME280;2591;48.144;15.152;2023-02-12T01:32:49;78044.16;;;-144.65;86.62
5146;BME280;2591;48.144;15.152;2023-02-12T01:35:17;78044.16;;;-144.65;87.59
5146;BME280;2591;48.144;15.152;2023-02-12T01:37:45;78054.38;;;-144.65;88.32
5146;BME280;2591;48.144;15.152;2023-02-12T01:40:16;78062.53;;;-144.65;89.03
5146;BME280;2591;48.144;15.152;2023-02-12T01:42:44;78058.44;;;-144.65;90.09
5146;BME280;2591;48.144;15.152;2023-02-12T01:45:46;78064.56;;;-144.65;91.15
5146;BME280;2591;48.144;15.152;2023-02-12T01:48:16;78074.78;;;-144.65;92.54
5146;BME280;2591;48.144;15.152;2023-02-12T01:50:46;78068.66;;;-144.65;93.77
5146;BME280;2591;48.144;15.152;2023-02-12T01:53:15;78066.59;;;-144.65;94.54
5146;BME280;2591;48.144;15.152;2023-02-12T01:55:48;78060.50;;;-144.65;95.72
5146;BME280;2591;48.144;15.152;2023-02-12T01:58:18;78066.59;;;-144.65;96.59
5146;BME280;2591;48.144;15.152;2023-02-12T02:00:46;78064.56;;;-144.65;97.39
5146;BME280;2591;48.144;15.152;2023-02-12T02:03:14;78064.56;;;-144.65;98.41
5146;BME280;2591;48.144;15.152;2023-02-12T02:05:46;78072.72;;;-144.65;98.96
5146;BME280;2591;48.144;15.152;2023-02-12T02:08:17;78068.66;;;-144.65;99.79
5146;BME280;2591;48.144;15.152;2023-02-12T02:10:45;78072.72;;;-144.65;100.00
5146;BME280;2591;48.144;15.152;2023-02-12T02:13:14;78072.72;;;-144.65;100.00
5146;BME280;2591;48.144;15.152;2023-02-12T02:16:05;78070.69;;;-144.65;100.00
5146;BME280;2591;48.144;15.152;2023-02-12T02:18:42;78072.72;;;-144.65;100.00
5146;BME280;2591;48.144;15.152;2023-02-12T02:21:50;78076.81;;;-144.65;100.00
5146;BME280;2591;48.144;15.152;2023-02-12T02:27:40;78082.94;;;-144.65;100.00
5146;BME280;2591;48.144;15.152;2023-02-12T02:30:21;78084.97;;;-144.65;100.00
5146;BME280;2591;48.144;15.152;2023-02-12T02:33:01;78084.97;;;-144.65;100.00
5146;BME280;2591;48.144;15.152;2023-02-12T02:35:38;78089.03;;;-144.65;100.00
5146;BME280;2591;48.144;15.152;2023-02-12T02:38:18;78089.03;;;-144.65;100.00
5146;BME280;2591;48.144;15.152;2023-02-12T02:40:52;78089.03;;;-144.65;100.00
5146;BME280;2591;48.144;15.152;2023-02-12T02:43:27;78080.88;;;-144.65;100.00
5146;BME280;2591;48.144;15.152;2023-02-12T02:46:01;78082.94;;;-144.65;100.00
5146;BME280;2591;48.144;15.152;2023-02-12T02:48:34;78080.88;;;-144.65;100.00
5146;BME280;2591;48.144;15.152;2023-02-12T02:51:07;78082.94;;;-144.65;100.00
5146;BME280;2591;48.144;15.152;2023-02-12T02:53:38;78084.97;;;-144.65;100.00
5146;BME280;2591;48.144;15.152;2023-02-12T02:56:13;78091.09;;;-144.65;100.00
5146;BME280;2591;48.144;15.152;2023-02-12T02:58:45;78097.22;;;-144.65;100.00
5146;BME280;2591;48.144;15.152;2023-02-12T03:01:19;78101.28;;;-144.65;100.00
5146;BME280;2591;48.144;15.152;2023-02-12T03:03:52;78101.28;;;-144.65;100.00
5146;BME280;2591;48.144;15.152;2023-02-12T03:06:27;78105.38;;;-144.65;100.00
5146;BME280;2591;48.144;15.152;2023-02-12T03:08:58;78121.69;;;-144.65;100.00
5146;BME280;2591;48.144;15.152;2023-02-12T03:11:29;78121.69;;;-144.65;100.00
5146;BME280;2591;48.144;15.152;2023-02-12T03:14:02;78129.84;;;-144.65;100.00
5146;BME280;2591;48.144;15.152;2023-02-12T03:16:38;78135.97;;;-144.65;100.00
5146;BME280;2591;48.144;15.152;2023-02-12T03:19:11;78129.84;;;-144.65;100.00
5146;BME280;2591;48.144;15.152;2023-02-12T03:21:45;78125.78;;;-144.65;100.00
5146;BME280;2591;48.144;15.152;2023-02-12T03:24:20;78117.59;;;-144.65;100.00
5146;BME280;2591;48.144;15.152;2023-02-12T03:26:51;78125.78;;;-144.65;100.00
5146;BME280;2591;48.144;15.152;2023-02-12T03:29:21;78142.09;;;-144.65;100.00
5146;BME280;2591;48.144;15.152;2023-02-12T03:31:58;78142.09;;;-144.65;100.00
5146;BME280;2591;48.144;15.152;2023-02-12T03:34:40;78142.09;;;-144.65;100.00
5146;BME280;2591;48.144;15.152;2023-02-12T03:37:17;78138.00;;;-144.65;100.00
5146;BME280;2591;48.144;15.152;2023-02-12T03:39:54;78135.97;;;-144.65;100.00
5146;BME280;2591;48.144;15.152;2023-02-12T03:42:32;78146.16;;;-144.65;100.00
5146;BME280;2591;48.144;15.152;2023-02-12T03:45:06;78152.28;;;-144.65;100.00
5146;BME280;2591;48.144;15.152;2023-02-12T03:47:43;78146.16;;;-144.65;100.00
5146;BME280;2591;48.144;15.152;2023-02-12T03:50:16;78152.28;;;-144.65;100.00
5146;BME280;2591;48.144;15.152;2023-02-12T03:52:45;78158.41;;;-144.65;100.00
5146;BME280;2591;48.144;15.152;2023-02-12T03:55:15;78156.38;;;-144.65;100.00
5146;BME280;2591;48.144;15.152;2023-02-12T03:57:45;78158.41;;;-144.65;100.00
5146;BME280;2591;48.144;15.152;2023-02-12T04:00:17;78158.41;;;-144.65;100.00
5146;BME280;2591;48.144;15.152;2023-02-12T04:02:47;78160.44;;;-144.65;100.00
5146;BME280;2591;48.144;15.152;2023-02-12T04:05:18;78166.56;;;-144.65;100.00
5146;BME280;2591;48.144;15.152;2023-02-12T04:07:47;78170.66;;;-144.65;100.00
5146;BME280;2591;48.144;15.152;2023-02-12T04:10:16;78174.72;;;-144.65;100.00
5146;BME280;2591;48.144;15.152;2023-02-12T04:12:51;78162.50;;;-144.65;100.00
5146;BME280;2591;48.144;15.152;2023-02-12T04:15:41;78162.50;;;-144.65;100.00
5146;BME280;2591;48.144;15.152;2023-02-12T04:18:14;78166.56;;;-144.65;100.00
5146;BME280;2591;48.144;15.152;2023-02-12T04:20:53;78174.72;;;-144.65;100.00
5146;BME280;2591;48.144;15.152;2023-02-12T04:23:37;78174.72;;;-144.65;100.00
5146;BME280;2591;48.144;15.152;2023-02-12T04:26:11;78178.81;;;-144.65;100.00
5146;BME280;2591;48.144;15.152;2023-02-12T04:28:50;78180.84;;;-144.65;100.00
5146;BME280;2591;48.144;15.152;2023-02-12T04:31:23;78186.97;;;-144.65;100.00
5146;BME280;2591;48.144;15.152;2023-02-12T04:34:04;78180.84;;;-144.65;100.00
5146;BME280;2591;48.144;15.152;2023-02-12T04:36:39;78178.81;;;-144.65;100.00
5146;BME280;2591;48.144;15.152;2023-02-12T04:39:10;78182.88;;;-144.65;100.00
5146;BME280;2591;48.144;15.152;2023-02-12T04:41:42;78174.72;;;-144.65;100.00
5146;BME280;2591;48.144;15.152;2023-02-12T04:44:15;78180.84;;;-144.65;100.00
5146;BME280;2591;48.144;15.152;2023-02-12T04:46:43;78174.72;;;-144.65;100.00
5146;BME280;2591;48.144;15.152;2023-02-12T04:49:17;78186.97;;;-144.65;100.00
5146;BME280;2591;48.144;15.152;2023-02-12T04:51:46;78186.97;;;-144.65;100.00
5146;BME280;2591;48.144;15.152;2023-02-12T04:54:15;78170.66;;;-144.65;100.00
5146;BME280;2591;48.144;15.152;2023-02-12T04:56:44;78174.72;;;-144.65;100.00
5146;BME280;2591;48.144;15.152;2023-02-12T04:59:12;78178.81;;;-144.65;100.00
5146;BME280;2591;48.144;15.152;2023-02-12T05:01:41;78189.00;;;-144.65;100.00
5146;BME280;2591;48.144;15.152;2023-02-12T05:04:11;78199.22;;;-144.65;100.00
5146;BME280;2591;48.144;15.152;2023-02-12T05:06:42;78191.03;;;-144.65;100.00
5146;BME280;2591;48.144;15.152;2023-02-12T05:09:13;78191.03;;;-144.65;100.00
5146;BME280;2591;48.144;15.152;2023-02-12T05:11:41;78191.03;;;-144.65;100.00
5146;BME280;2591;48.144;15.152;2023-02-12T05:14:10;78191.03;;;-144.65;100.00
5146;BME280;2591;48.144;15.152;2023-02-12T05:16:38;78207.38;;;-144.65;100.00
5146;BME280;2591;48.144;15.152;2023-02-12T05:19:05;78193.09;;;-144.65;100.00
5146;BME280;2591;48.144;15.152;2023-02-12T05:21:35;78193.09;;;-144.65;100.00
5146;BME280;2591;48.144;15.152;2023-02-12T05:24:04;78193.09;;;-144.65;100.00
5146;BME280;2591;48.144;15.152;2023-02-12T05:26:33;78195.13;;;-144.65;100.00
5146;BME280;2591;48.144;15.152;2023-02-12T05:29:01;78199.22;;;-144.65;100.00
5146;BME280;2591;48.144;15.152;2023-02-12T05:31:29;78199.22;;;-144.65;100.00
5146;BME280;2591;48.144;15.152;2023-02-12T05:33:57;78199.22;;;-144.65;100.00
5146;BME280;2591;48.144;15.152;2023-02-12T05:36:26;78203.28;;;-144.65;100.00
5146;BME280;2591;48.144;15.152;2023-02-12T05:38:56;78195.13;;;-144.65;100.00
5146;BME280;2591;48.144;15.152;2023-02-12T05:41:26;78199.22;;;-144.65;100.00
5146;BME280;2591;48.144;15.152;2023-02-12T05:43:54;78201.25;;;-144.65;100.00
5146;BME280;2591;48.144;15.152;2023-02-12T05:46:22;78211.44;;;-144.65;100.00
5146;BME280;2591;48.144;15.152;2023-02-12T05:48:50;78207.38;;;-144.65;100.00
5146;BME280;2591;48.144;15.152;2023-02-12T05:51:20;78211.44;;;-144.65;100.00
5146;BME280;2591;48.144;15.152;2023-02-12T05:53:49;78213.50;;;-144.65;100.00
5146;BME280;2591;48.144;15.152;2023-02-12T05:56:19;78213.50;;;-144.65;100.00
5146;BME280;2591;48.144;15.152;2023-02-12T05:58:53;78215.53;;;-144.65;100.00
5146;BME280;2591;48.144;15.152;2023-02-12T06:01:24;78217.56;;;-144.65;100.00
5146;BME280;2591;48.144;15.152;2023-02-12T06:03:53;78205.31;;;-144.65;100.00
5146;BME280;2591;48.144;15.152;2023-02-12T06:06:21;78207.38;;;-144.65;100.00
5146;BME280;2591;48.144;15.152;2023-02-12T06:08:49;78207.38;;;-144.65;100.00
5146;BME280;2591;48.144;15.152;2023-02-12T06:11:17;78215.53;;;-144.65;100.00
5146;BME280;2591;48.144;15.152;2023-02-12T06:13:47;78215.53;;;-144.65;100.00
5146;BME280;2591;48.144;15.152;2023-02-12T06:16:18;78217.56;;;-144.65;100.00
5146;BME280;2591;48.144;15.152;2023-02-12T06:18:46;78233.88;;;-144.65;100.00
5146;BME280;2591;48.144;15.152;2023-02-12T06:21:14;78240.00;;;-144.65;100.00
5146;BME280;2591;48.144;15.152;2023-02-12T06:23:42;78242.06;;;-144.65;100.00
5146;BME280;2591;48.144;15.152;2023-02-12T06:26:10;78242.06;;;-144.65;100.00
5146;BME280;2591;48.144;15.152;2023-02-12T06:28:38;78244.09;;;-144.65;100.00
5146;BME280;2591;48.144;15.152;2023-02-12T06:31:17;78244.09;;;-144.65;100.00
5146;BME280;2591;48.144;15.152;2023-02-12T06:33:45;78240.00;;;-144.65;100.00
5146;BME280;2591;48.144;15.152;2023-02-12T06:36:13;78231.84;;;-144.65;100.00
5146;BME280;2591;48.144;15.152;2023-02-12T06:38:41;78244.09;;;-144.65;100.00
5146;BME280;2591;48.144;15.152;2023-02-12T06:41:09;78248.16;;;-144.65;100.00
5146;BME280;2591;48.144;15.152;2023-02-12T06:43:37;78244.09;;;-144.65;100.00
5146;BME280;2591;48.144;15.152;2023-02-12T06:46:05;78248.16;;;-144.65;100.00
5146;BME280;2591;48.144;15.152;2023-02-12T06:48:35;78248.16;;;-144.65;100.00
5146;BME280;2591;48.144;15.152;2023-02-12T06:51:04;78252.25;;;-144.65;100.00
5146;BME280;2591;48.144;15.152;2023-02-12T06:53:33;78256.31;;;-144.65;100.00
5146;BME280;2591;48.144;15.152;2023-02-12T06:56:02;78244.09;;;-144.65;100.00
5146;BME280;2591;48.144;15.152;2023-02-12T06:58:31;78256.31;;;-144.65;100.00
5146;BME280;2591;48.144;15.152;2023-02-12T07:01:07;78260.41;;;-144.65;100.00
5146;BME280;2591;48.144;15.152;2023-02-12T07:03:38;78264.50;;;-144.65;100.00
5146;BME280;2591;48.144;15.152;2023-02-12T07:06:06;78256.31;;;-144.65;100.00
5146;BME280;2591;48.144;15.152;2023-02-12T07:08:34;78260.41;;;-144.65;100.00
5146;BME280;2591;48.144;15.152;2023-02-12T07:11:02;78260.41;;;-144.65;100.00
5146;BME280;2591;48.144;15.152;2023-02-12T07:13:30;78260.41;;;-144.65;100.00
5146;BME280;2591;48.144;15.152;2023-02-12T07:16:02;78268.56;;;-144.65;100.00
5146;BME280;2591;48.144;15.152;2023-02-12T07:18:32;78268.56;;;-144.65;100.00
5146;BME280;2591;48.144;15.152;2023-02-12T07:21:02;78268.56;;;-144.65;100.00
5146;BME280;2591;48.144;15.152;2023-02-12T07:23:30;78268.56;;;-144.65;100.00
5146;BME280;2591;48.144;15.152;2023-02-12T07:25:59;78268.56;;;-144.65;100.00
5146;BME280;2591;48.144;15.152;2023-02-12T07:28:27;78268.56;;;-144.65;100.00
5146;BME280;2591;48.144;15.152;2023-02-12T07:30:59;78272.66;;;-144.65;100.00
5146;BME280;2591;48.144;15.152;2023-02-12T07:33:27;78268.56;;;-144.65;100.00
5146;BME280;2591;48.144;15.152;2023-02-12T07:35:58;78272.66;;;-144.65;100.00
5146;BME280;2591;48.144;15.152;2023-02-12T07:38:28;78268.56;;;-144.65;100.00
5146;BME280;2591;48.144;15.152;2023-02-12T07:41:05;78272.66;;;-144.65;100.00
5146;BME280;2591;48.144;15.152;2023-02-12T07:43:36;78278.78;;;-144.65;100.00
5146;BME280;2591;48.144;15.152;2023-02-12T07:46:06;78278.78;;;-144.65;100.00
5146;BME280;2591;48.144;15.152;2023-02-12T07:48:34;78276.72;;;-144.65;100.00
5146;BME280;2591;48.144;15.152;2023-02-12T07:51:04;78278.78;;;-144.65;100.00
5146;BME280;2591;48.144;15.152;2023-02-12T07:53:33;78276.72;;;-144.65;100.00
5146;BME280;2591;48.144;15.152;2023-02-12T07:56:09;78274.69;;;-144.65;100.00
5146;BME280;2591;48.144;15.152;2023-02-12T07:58:38;78278.78;;;-144.65;100.00
5146;BME280;2591;48.144;15.152;2023-02-12T08:01:16;78270.59;;;-144.65;100.00
5146;BME280;2591;48.144;15.152;2023-02-12T08:03:45;78268.56;;;-144.65;100.00
5146;BME280;2591;48.144;15.152;2023-02-12T08:06:15;78260.41;;;-144.65;100.00
5146;BME280;2591;48.144;15.152;2023-02-12T08:08:46;78266.53;;;-144.65;100.00
5146;BME280;2591;48.144;15.152;2023-02-12T08:11:14;78266.53;;;-144.65;100.00
5146;BME280;2591;48.144;15.152;2023-02-12T08:13:42;78260.41;;;-144.65;100.00
5146;BME280;2591;48.144;15.152;2023-02-12T08:16:12;78264.50;;;-144.65;100.00
5146;BME280;2591;48.144;15.152;2023-02-12T08:18:40;78260.41;;;-144.65;100.00
5146;BME280;2591;48.144;15.152;2023-02-12T08:21:09;78262.44;;;-144.65;100.00
5146;BME280;2591;48.144;15.152;2023-02-12T08:23:38;78256.31;;;-144.65;100.00
5146;BME280;2591;48.144;15.152;2023-02-12T08:26:09;78248.16;;;-144.65;100.00
5146;BME280;2591;48.144;15.152;2023-02-12T08:28:39;78252.25;;;-144.65;100.00
5146;BME280;2591;48.144;15.152;2023-02-12T08:31:09;78252.25;;;-144.65;100.00
5146;BME280;2591;48.144;15.152;2023-02-12T08:33:37;78248.16;;;-144.65;100.00
5146;BME280;2591;48.144;15.152;2023-02-12T08:36:07;78246.13;;;-144.65;100.00
5146;BME280;2591;48.144;15.152;2023-02-12T08:38:37;78246.13;;;-144.65;100.00
5146;BME280;2591;48.144;15.152;2023-02-12T08:41:08;78244.09;;;-144.65;100.00
5146;BME280;2591;48.144;15.152;2023-02-12T08:43:38;78240.00;;;-144.65;100.00
5146;BME280;2591;48.144;15.152;2023-02-12T08:46:09;78244.09;;;-144.65;100.00
5146;BME280;2591;48.144;15.152;2023-02-12T08:48:37;78246.13;;;-144.65;100.00
5146;BME280;2591;48.144;15.152;2023-02-12T08:51:07;78248.16;;;-144.65;100.00
5146;BME280;2591;48.144;15.152;2023-02-12T08:53:36;78248.16;;;-144.65;100.00
5146;BME280;2591;48.144;15.152;2023-02-12T08:56:05;78250.22;;;-144.65;100.00
5146;BME280;2591;48.144;15.152;2023-02-12T08:58:35;78254.28;;;-144.65;100.00
5146;BME280;2591;48.144;15.152;2023-02-12T09:01:04;78248.16;;;-144.65;100.00
5146;BME280;2591;48.144;15.152;2023-02-12T09:03:36;78244.09;;;-144.65;100.00
5146;BME280;2591;48.144;15.152;2023-02-12T09:06:05;78235.94;;;-144.65;100.00
5146;BME280;2591;48.144;15.152;2023-02-12T09:08:34;78225.72;;;-144.65;100.00
5146;BME280;2591;48.144;15.152;2023-02-12T09:11:03;78221.66;;;-144.65;100.00
5146;BME280;2591;48.144;15.152;2023-02-12T09:13:31;78219.59;;;-144.65;100.00
5146;BME280;2591;48.144;15.152;2023-02-12T09:16:02;78221.66;;;-144.65;100.00
5146;BME280;2591;48.144;15.152;2023-02-12T09:18:30;78229.81;;;-144.65;100.00
5146;BME280;2591;48.144;15.152;2023-02-12T09:21:00;78223.69;;;-144.65;100.00
5146;BME280;2591;48.144;15.152;2023-02-12T09:23:29;78223.69;;;-144.65;100.00
5146;BME280;2591;48.144;15.152;2023-02-12T09:25:57;78223.69;;;-144.65;100.00
5146;BME280;2591;48.144;15.152;2023-02-12T09:28:25;78221.66;;;-144.65;100.00
5146;BME280;2591;48.144;15.152;2023-02-12T09:30:52;78221.66;;;-144.65;100.00
5146;BME280;2591;48.144;15.152;2023-02-12T09:33:23;78219.59;;;-144.65;100.00
5146;BME280;2591;48.144;15.152;2023-02-12T09:35:50;78207.38;;;-144.65;100.00
5146;BME280;2591;48.144;15.152;2023-02-12T09:38:18;78207.38;;;-144.65;100.00
5146;BME280;2591;48.144;15.152;2023-02-12T09:40:55;78203.28;;;-144.65;100.00
5146;BME280;2591;48.144;15.152;2023-02-12T09:43:34;78205.31;;;-144.65;100.00
5146;BME280;2591;48.144;15.152;2023-02-12T09:46:09;78215.53;;;-144.65;100.00
5146;BME280;2591;48.144;15.152;2023-02-12T09:48:52;78215.53;;;-144.65;100.00
5146;BME280;2591;48.144;15.152;2023-02-12T09:51:22;78215.53;;;-144.65;100.00
5146;BME280;2591;48.144;15.152;2023-02-12T09:54:00;78215.53;;;-144.65;100.00
5146;BME280;2591;48.144;15.152;2023-02-12T09:56:29;78213.50;;;-144.65;100.00
5146;BME280;2591;48.144;15.152;2023-02-12T09:58:59;78215.53;;;-144.65;100.00
5146;BME280;2591;48.144;15.152;2023-02-12T10:01:28;78191.03;;;-144.65;100.00
5146;BME280;2591;48.144;15.152;2023-02-12T10:03:58;78184.94;;;-144.65;100.00
5146;BME280;2591;48.144;15.152;2023-02-12T10:06:28;78186.97;;;-144.65;100.00
5146;BME280;2591;48.144;15.152;2023-02-12T10:09:02;78178.81;;;-144.65;100.00
5146;BME280;2591;48.144;15.152;2023-02-12T10:11:44;78182.88;;;-144.65;100.00
5146;BME280;2591;48.144;15.152;2023-02-12T10:14:28;78178.81;;;-144.65;100.00
5146;BME280;2591;48.144;15.152;2023-02-12T10:17:03;78170.66;;;-144.65;100.00
5146;BME280;2591;48.144;15.152;2023-02-12T10:19:52;78170.66;;;-144.65;100.00
5146;BME280;2591;48.144;15.152;2023-02-12T10:22:34;78166.56;;;-144.65;100.00
5146;BME280;2591;48.144;15.152;2023-02-12T10:25:25;78154.31;;;-144.65;100.00
5146;BME280;2591;48.144;15.152;2023-02-12T10:27:59;78168.59;;;-144.65;100.00
5146;BME280;2591;48.144;15.152;2023-02-12T10:30:35;78154.31;;;-144.65;100.00
5146;BME280;2591;48.144;15.152;2023-02-12T10:33:06;78142.09;;;-144.65;100.00
5146;BME280;2591;48.144;15.152;2023-02-12T10:35:43;78144.13;;;-144.65;100.00
5146;BME280;2591;48.144;15.152;2023-02-12T10:38:15;78150.25;;;-144.65;100.00
5146;BME280;2591;48.144;15.152;2023-02-12T10:40:45;78138.00;;;-144.65;100.00
5146;BME280;2591;48.144;15.152;2023-02-12T10:43:13;78135.97;;;-144.65;100.00
5146;BME280;2591;48.144;15.152;2023-02-12T10:45:42;78125.78;;;-144.65;100.00
5146;BME280;2591;48.144;15.152;2023-02-12T10:48:13;78123.72;;;-144.65;100.00
5146;BME280;2591;48.144;15.152;2023-02-12T10:50:54;78105.38;;;-144.65;100.00
5146;BME280;2591;48.144;15.152;2023-02-12T10:53:28;78097.22;;;-144.65;100.00
5146;BME280;2591;48.144;15.152;2023-02-12T10:56:14;78101.28;;;-144.65;100.00
5146;BME280;2591;48.144;15.152;2023-02-12T10:58:52;78107.41;;;-144.65;100.00
5146;BME280;2591;48.144;15.152;2023-02-12T11:01:23;78101.28;;;-144.65;100.00
5146;BME280;2591;48.144;15.152;2023-02-12T11:03:53;78097.22;;;-144.65;100.00
5146;BME280;2591;48.144;15.152;2023-02-12T11:06:25;78101.28;;;-144.65;100.00
5146;BME280;2591;48.144;15.152;2023-02-12T11:08:53;78117.59;;;-144.65;100.00
5146;BME280;2591;48.144;15.152;2023-02-12T11:11:23;78117.59;;;-144.65;100.00
5146;BME280;2591;48.144;15.152;2023-02-12T11:13:57;78109.44;;;-144.65;100.00
5146;BME280;2591;48.144;15.152;2023-02-12T11:16:29;78113.53;;;-144.65;100.00
5146;BME280;2591;48.144;15.152;2023-02-12T11:18:59;78109.44;;;-144.65;100.00
5146;BME280;2591;48.144;15.152;2023-02-12T11:21:29;78111.50;;;-144.65;100.00
5146;BME280;2591;48.144;15.152;2023-02-12T11:24:28;78115.56;;;-144.65;100.00
5146;BME280;2591;48.144;15.152;2023-02-12T11:27:12;78113.53;;;-144.65;100.00
5146;BME280;2591;48.144;15.152;2023-02-12T11:29:46;78119.66;;;-144.65;100.00
5146;BME280;2591;48.144;15.152;2023-02-12T11:32:17;78115.56;;;-144.65;100.00
5146;BME280;2591;48.144;15.152;2023-02-12T11:35:03;78113.53;;;-144.65;100.00
5146;BME280;2591;48.144;15.152;2023-02-12T11:37:35;78109.44;;;-144.65;100.00
5146;BME280;2591;48.144;15.152;2023-02-12T11:40:14;78115.56;;;-144.65;100.00
5146;BME280;2591;48.144;15.152;2023-02-12T11:42:47;78109.44;;;-144.65;100.00
5146;BME280;2591;48.144;15.152;2023-02-12T11:45:17;78097.22;;;-144.65;100.00
5146;BME280;2591;48.144;15.152;2023-02-12T11:47:46;78097.22;;;-144.65;100.00
5146;BME280;2591;48.144;15.152;2023-02-12T11:50:23;78082.94;;;-144.65;100.00
5146;BME280;2591;48.144;15.152;2023-02-12T11:52:55;78080.88;;;-144.65;100.00
5146;BME280;2591;48.144;15.152;2023-02-12T11:55:26;78080.88;;;-144.65;100.00
5146;BME280;2591;48.144;15.152;2023-02-12T11:58:02;78062.53;;;-144.65;100.00
5146;BME280;2591;48.144;15.152;2023-02-12T12:00:33;78054.38;;;-144.65;100.00
5146;BME280;2591;48.144;15.152;2023-02-12T12:03:09;78056.41;;;-144.65;100.00
5146;BME280;2591;48.144;15.152;2023-02-12T12:05:43;78054.38;;;-144.65;100.00
5146;BME280;2591;48.144;15.152;2023-02-12T12:08:18;78052.31;;;-144.65;100.00
5146;BME280;2591;48.144;15.152;2023-02-12T12:10:52;78042.13;;;-144.65;100.00
5146;BME280;2591;48.144;15.152;2023-02-12T12:13:26;78054.38;;;-144.65;100.00
5146;BME280;2591;48.144;15.152;2023-02-12T12:16:03;78054.38;;;-144.65;100.00
5146;BME280;2591;48.144;15.152;2023-02-12T12:18:54;78064.56;;;-144.65;100.00
5146;BME280;2591;48.144;15.152;2023-02-12T12:21:44;78060.50;;;-144.65;100.00
5146;BME280;2591;48.144;15.152;2023-02-12T12:24:20;78052.31;;;-144.65;100.00
5146;BME280;2591;48.144;15.152;2023-02-12T12:26:56;78038.06;;;-144.65;100.00
5146;BME280;2591;48.144;15.152;2023-02-12T12:29:33;78040.09;;;-144.65;100.00
5146;BME280;2591;48.144;15.152;2023-02-12T12:32:10;78025.81;;;-144.65;100.00
5146;BME280;2591;48.144;15.152;2023-02-12T12:34:39;78027.84;;;-144.65;100.00
5146;BME280;2591;48.144;15.152;2023-02-12T12:37:21;78023.78;;;-144.65;100.00
5146;BME280;2591;48.144;15.152;2023-02-12T12:40:06;78029.88;;;-144.65;100.00
5146;BME280;2591;48.144;15.152;2023-02-12T12:43:00;78029.88;;;-144.65;100.00
5146;BME280;2591;48.144;15.152;2023-02-12T12:45:53;78031.94;;;-144.65;100.00
5146;BME280;2591;48.144;15.152;2023-02-12T12:48:36;78040.09;;;-144.65;100.00
5146;BME280;2591;48.144;15.152;2023-02-12T12:51:18;78027.84;;;-144.65;100.00
5146;BME280;2591;48.144;15.152;2023-02-12T12:54:09;78027.84;;;-144.65;100.00
5146;BME280;2591;48.144;15.152;2023-02-12T12:56:47;78027.84;;;-144.65;100.00
5146;BME280;2591;48.144;15.152;2023-02-12T12:59:35;78025.81;;;-144.65;100.00
5146;BME280;2591;48.144;15.152;2023-02-12T13:05:43;78033.97;;;-144.65;100.00
5146;BME280;2591;48.144;15.152;2023-02-12T13:08:36;78044.16;;;-144.65;100.00
5146;BME280;2591;48.144;15.152;2023-02-12T13:11:15;78046.22;;;-144.65;100.00
5146;BME280;2591;48.144;15.152;2023-02-12T13:13:56;78044.16;;;-144.65;100.00